sensor_id;sensor_type;location;lat;lon;timestamp;pressure;altitude;pressure_sealevel;temperature;humidity
45327;BME280;31062;49.678;24.560;2023-03-04T00:00:11;97798.19;;;-0.06;69.14
45327;BME280;31062;49.678;24.560;2023-03-04T00:02:57;98042.75;;;1.29;70.34
45327;BME280;31062;49.678;24.560;2023-03-04T00:05:42;97797.59;;;-0.17;70.06
45327;BME280;31062;49.678;24.560;2023-03-04T00:08:28;97997.34;;;1.26;70.03
45327;BME280;31062;49.678;24.560;2023-03-04T00:11:13;97804.41;;;-0.05;69.95
45327;BME280;31062;49.678;24.560;2023-03-04T00:13:59;98002.44;;;1.35;70.13
45327;BME280;31062;49.678;24.560;2023-03-04T00:16:44;98001.38;;;1.38;70.15
45327;BME280;31062;49.678;24.560;2023-03-04T00:19:30;98004.03;;;1.43;70.13
45327;BME280;31062;49.678;24.560;2023-03-04T00:22:17;97974.47;;;1.29;70.14
45327;BME280;31062;49.678;24.560;2023-03-04T00:25:03;97980.94;;;1.44;69.60
45327;BME280;31062;49.678;24.560;2023-03-04T00:27:49;97997.63;;;1.41;69.90
45327;BME280;31062;49.678;24.560;2023-03-04T00:30:35;97999.94;;;1.37;69.96
45327;BME280;31062;49.678;24.560;2023-03-04T00:33:22;97992.53;;;1.32;69.39
45327;BME280;31062;49.678;24.560;2023-03-04T00:36:09;98017.00;;;1.24;69.67
45327;BME280;31062;49.678;24.560;2023-03-04T00:38:55;97959.28;;;1.14;70.35
45327;BME280;31062;49.678;24.560;2023-03-04T00:41:41;97951.31;;;1.16;70.59
45327;BME280;31062;49.678;24.560;2023-03-04T00:44:27;97937.22;;;1.12;70.25
45327;BME280;31062;49.678;24.560;2023-03-04T00:47:12;97924.38;;;1.07;70.77
45327;BME280;31062;49.678;24.560;2023-03-04T00:49:58;97942.84;;;1.01;70.17
45327;BME280;31062;49.678;24.560;2023-03-04T00:52:43;97919.38;;;1.11;70.37
45327;BME280;31062;49.678;24.560;2023-03-04T00:55:29;97905.22;;;1.13;70.03
45327;BME280;31062;49.678;24.560;2023-03-04T00:58:14;97756.09;;;0.14;69.72
45327;BME280;31062;49.678;24.560;2023-03-04T01:01:00;97876.47;;;0.93;70.53
45327;BME280;31062;49.678;24.560;2023-03-04T01:03:46;97896.38;;;1.07;70.27
45327;BME280;31062;49.678;24.560;2023-03-04T01:06:31;97916.25;;;1.20;70.44
45327;BME280;31062;49.678;24.560;2023-03-04T01:09:17;97865.53;;;0.93;70.92
45327;BME280;31062;49.678;24.560;2023-03-04T01:12:02;97853.16;;;0.92;70.42
45327;BME280;31062;49.678;24.560;2023-03-04T01:14:48;97908.28;;;1.22;70.58
45327;BME280;31062;49.678;24.560;2023-03-04T01:17:34;97866.56;;;0.90;69.61
45327;BME280;31062;49.678;24.560;2023-03-04T01:20:19;97730.63;;;-0.07;70.49
45327;BME280;31062;49.678;24.560;2023-03-04T01:23:05;97751.84;;;0.00;69.88
45327;BME280;31062;49.678;24.560;2023-03-04T01:25:50;97775.41;;;0.16;70.89
45327;BME280;31062;49.678;24.560;2023-03-04T01:28:36;97879.19;;;0.93;70.47
45327;BME280;31062;49.678;24.560;2023-03-04T01:31:24;97876.47;;;0.93;70.46
45327;BME280;31062;49.678;24.560;2023-03-04T01:34:09;97901.09;;;1.06;70.67
45327;BME280;31062;49.678;24.560;2023-03-04T01:36:55;97891.03;;;0.96;70.57
45327;BME280;31062;49.678;24.560;2023-03-04T01:39:40;97876.22;;;0.91;70.70
45327;BME280;31062;49.678;24.560;2023-03-04T01:42:29;97880.88;;;0.96;71.04
45327;BME280;31062;49.678;24.560;2023-03-04T01:45:17;97699.91;;;-0.26;70.21
45327;BME280;31062;49.678;24.560;2023-03-04T01:48:04;97709.56;;;-0.25;70.04
45327;BME280;31062;49.678;24.560;2023-03-04T01:50:50;97694.53;;;-0.32;70.51
45327;BME280;31062;49.678;24.560;2023-03-04T01:53:36;97721.03;;;-0.14;70.66
45327;BME280;31062;49.678;24.560;2023-03-04T01:56:29;97885.72;;;1.03;70.43
45327;BME280;31062;49.678;24.560;2023-03-04T01:59:17;97786.66;;;0.26;70.89
45327;BME280;31062;49.678;24.560;2023-03-04T02:02:03;97872.47;;;0.94;70.77
45327;BME280;31062;49.678;24.560;2023-03-04T02:04:49;97880.69;;;1.07;70.90
45327;BME280;31062;49.678;24.560;2023-03-04T02:07:34;97872.72;;;1.09;71.00
45327;BME280;31062;49.678;24.560;2023-03-04T02:10:20;97897.03;;;1.26;70.50
45327;BME280;31062;49.678;24.560;2023-03-04T02:13:07;97870.91;;;1.31;70.41
45327;BME280;31062;49.678;24.560;2023-03-04T02:15:53;97858.06;;;1.26;70.11
45327;BME280;31062;49.678;24.560;2023-03-04T02:18:40;97855.16;;;1.23;69.96
45327;BME280;31062;49.678;24.560;2023-03-04T02:21:31;97874.94;;;1.11;69.80
45327;BME280;31062;49.678;24.560;2023-03-04T02:24:44;97862.09;;;1.25;70.06
45327;BME280;31062;49.678;24.560;2023-03-04T02:27:32;97836.63;;;1.16;70.46
45327;BME280;31062;49.678;24.560;2023-03-04T02:30:19;97858.91;;;1.20;70.16
45327;BME280;31062;49.678;24.560;2023-03-04T02:33:13;97835.16;;;1.15;70.29
45327;BME280;31062;49.678;24.560;2023-03-04T02:36:00;97713.53;;;0.11;69.41
45327;BME280;31062;49.678;24.560;2023-03-04T02:38:45;97649.47;;;-0.14;69.96
45327;BME280;31062;49.678;24.560;2023-03-04T02:41:32;97782.97;;;0.74;69.95
45327;BME280;31062;49.678;24.560;2023-03-04T02:44:24;97836.41;;;1.14;69.41
45327;BME280;31062;49.678;24.560;2023-03-04T02:47:11;97755.31;;;0.51;69.39
45327;BME280;31062;49.678;24.560;2023-03-04T02:49:58;97818.19;;;0.91;69.82
45327;BME280;31062;49.678;24.560;2023-03-04T02:52:43;97773.72;;;0.64;70.22
45327;BME280;31062;49.678;24.560;2023-03-04T02:55:29;97831.63;;;0.89;70.01
45327;BME280;31062;49.678;24.560;2023-03-04T02:58:16;97797.28;;;0.80;70.05
45327;BME280;31062;49.678;24.560;2023-03-04T03:01:02;97610.78;;;-0.45;70.35
45327;BME280;31062;49.678;24.560;2023-03-04T03:03:47;97838.25;;;0.93;70.28
45327;BME280;31062;49.678;24.560;2023-03-04T03:06:33;97813.03;;;0.87;69.89
45327;BME280;31062;49.678;24.560;2023-03-04T03:09:20;97810.09;;;0.85;69.97
45327;BME280;31062;49.678;24.560;2023-03-04T03:12:05;97672.66;;;-0.08;70.02
45327;BME280;31062;49.678;24.560;2023-03-04T03:14:51;97806.94;;;0.81;70.13
45327;BME280;31062;49.678;24.560;2023-03-04T03:17:38;97772.97;;;0.63;70.63
45327;BME280;31062;49.678;24.560;2023-03-04T03:20:24;97825.59;;;0.77;70.58
45327;BME280;31062;49.678;24.560;2023-03-04T03:23:10;97803.78;;;0.77;69.98
45327;BME280;31062;49.678;24.560;2023-03-04T03:25:55;97780.28;;;0.87;70.43
45327;BME280;31062;49.678;24.560;2023-03-04T03:28:44;97756.13;;;0.78;69.95
45327;BME280;31062;49.678;24.560;2023-03-04T03:31:30;97582.50;;;-0.42;69.76
45327;BME280;31062;49.678;24.560;2023-03-04T03:34:16;97806.53;;;0.90;69.55
45327;BME280;31062;49.678;24.560;2023-03-04T03:37:01;97754.88;;;0.79;69.71
45327;BME280;31062;49.678;24.560;2023-03-04T03:39:47;97770.63;;;0.86;69.74
45327;BME280;31062;49.678;24.560;2023-03-04T03:42:32;97615.31;;;-0.15;69.41
45327;BME280;31062;49.678;24.560;2023-03-04T03:45:18;97773.13;;;0.71;70.00
45327;BME280;31062;49.678;24.560;2023-03-04T03:48:04;97731.00;;;0.66;69.51
45327;BME280;31062;49.678;24.560;2023-03-04T03:50:50;97792.88;;;0.90;69.98
45327;BME280;31062;49.678;24.560;2023-03-04T03:53:35;97758.13;;;0.91;69.52
45327;BME280;31062;49.678;24.560;2023-03-04T03:56:20;97616.91;;;-0.07;69.93
45327;BME280;31062;49.678;24.560;2023-03-04T03:59:06;97742.69;;;0.80;69.58
45327;BME280;31062;49.678;24.560;2023-03-04T04:01:51;97753.66;;;0.93;69.41
45327;BME280;31062;49.678;24.560;2023-03-04T04:04:38;97772.00;;;0.93;69.13
45327;BME280;31062;49.678;24.560;2023-03-04T04:07:23;97739.59;;;0.89;69.24
45327;BME280;31062;49.678;24.560;2023-03-04T04:10:09;97735.66;;;0.85;69.08
45327;BME280;31062;49.678;24.560;2023-03-04T04:12:56;97720.44;;;0.76;69.19
45327;BME280;31062;49.678;24.560;2023-03-04T04:15:42;97737.03;;;0.91;69.25
45327;BME280;31062;49.678;24.560;2023-03-04T04:18:28;97582.28;;;-0.12;69.54
45327;BME280;31062;49.678;24.560;2023-03-04T04:21:13;97739.78;;;0.91;69.40
45327;BME280;31062;49.678;24.560;2023-03-04T04:23:59;97526.00;;;-0.54;69.52
45327;BME280;31062;49.678;24.560;2023-03-04T04:26:45;97755.97;;;0.89;69.49
45327;BME280;31062;49.678;24.560;2023-03-04T04:29:30;97711.84;;;0.85;69.52
45327;BME280;31062;49.678;24.560;2023-03-04T04:32:16;97741.66;;;0.83;69.34
45327;BME280;31062;49.678;24.560;2023-03-04T04:35:02;97672.66;;;0.56;69.16
45327;BME280;31062;49.678;24.560;2023-03-04T04:37:48;97708.78;;;0.75;68.80
45327;BME280;31062;49.678;24.560;2023-03-04T04:40:33;97695.00;;;0.55;69.72
45327;BME280;31062;49.678;24.560;2023-03-04T04:43:19;97686.81;;;0.55;68.92
45327;BME280;31062;49.678;24.560;2023-03-04T04:46:05;97698.38;;;0.61;68.75
45327;BME280;31062;49.678;24.560;2023-03-04T04:48:51;97513.50;;;-0.63;69.24
45327;BME280;31062;49.678;24.560;2023-03-04T04:51:41;97690.41;;;0.63;69.47
45327;BME280;31062;49.678;24.560;2023-03-04T04:54:30;97690.81;;;0.67;69.21
45327;BME280;31062;49.678;24.560;2023-03-04T04:57:17;97683.19;;;0.65;68.75
45327;BME280;31062;49.678;24.560;2023-03-04T05:00:07;97550.97;;;-0.18;68.55
45327;BME280;31062;49.678;24.560;2023-03-04T05:02:54;97713.50;;;0.75;68.86
45327;BME280;31062;49.678;24.560;2023-03-04T05:05:42;97691.28;;;0.71;68.50
45327;BME280;31062;49.678;24.560;2023-03-04T05:08:28;97675.13;;;0.86;68.51
45327;BME280;31062;49.678;24.560;2023-03-04T05:11:14;97480.28;;;-0.43;67.14
45327;BME280;31062;49.678;24.560;2023-03-04T05:13:59;97636.25;;;0.67;67.45
45327;BME280;31062;49.678;24.560;2023-03-04T05:16:45;97656.25;;;0.88;66.85
45327;BME280;31062;49.678;24.560;2023-03-04T05:19:30;97668.00;;;0.83;66.19
45327;BME280;31062;49.678;24.560;2023-03-04T05:22:16;97662.63;;;1.04;66.20
45327;BME280;31062;49.678;24.560;2023-03-04T05:25:03;97635.66;;;1.00;65.76
45327;BME280;31062;49.678;24.560;2023-03-04T05:27:49;97484.78;;;0.00;65.35
45327;BME280;31062;49.678;24.560;2023-03-04T05:30:48;97621.81;;;0.98;65.48
45327;BME280;31062;49.678;24.560;2023-03-04T05:33:33;97643.22;;;0.94;64.79
45327;BME280;31062;49.678;24.560;2023-03-04T05:36:19;97451.75;;;-0.10;65.66
45327;BME280;31062;49.678;24.560;2023-03-04T05:39:05;97631.66;;;1.14;65.43
45327;BME280;31062;49.678;24.560;2023-03-04T05:41:51;97434.66;;;-0.10;64.31
45327;BME280;31062;49.678;24.560;2023-03-04T05:44:37;97631.88;;;1.30;65.04
45327;BME280;31062;49.678;24.560;2023-03-04T05:47:22;97599.09;;;1.16;64.22
45327;BME280;31062;49.678;24.560;2023-03-04T05:50:09;97626.78;;;1.47;63.96
45327;BME280;31062;49.678;24.560;2023-03-04T05:52:54;97444.41;;;0.25;64.00
45327;BME280;31062;49.678;24.560;2023-03-04T05:55:45;97641.47;;;1.57;62.56
45327;BME280;31062;49.678;24.560;2023-03-04T05:58:31;97483.31;;;0.52;62.75
45327;BME280;31062;49.678;24.560;2023-03-04T06:01:16;97617.22;;;1.53;62.75
45327;BME280;31062;49.678;24.560;2023-03-04T06:04:02;97567.59;;;1.29;62.20
45327;BME280;31062;49.678;24.560;2023-03-04T06:06:47;97598.16;;;1.61;61.80
45327;BME280;31062;49.678;24.560;2023-03-04T06:09:33;97621.41;;;1.88;61.57
45327;BME280;31062;49.678;24.560;2023-03-04T06:12:19;97624.22;;;1.96;60.72
45327;BME280;31062;49.678;24.560;2023-03-04T06:15:06;97610.22;;;1.99;60.62
45327;BME280;31062;49.678;24.560;2023-03-04T06:17:54;97598.81;;;1.88;59.88
45327;BME280;31062;49.678;24.560;2023-03-04T06:20:39;97521.84;;;1.42;59.84
45327;BME280;31062;49.678;24.560;2023-03-04T06:23:26;97623.56;;;2.24;59.63
45327;BME280;31062;49.678;24.560;2023-03-04T06:26:11;97620.63;;;2.42;59.71
45327;BME280;31062;49.678;24.560;2023-03-04T06:29:00;97414.47;;;1.27;58.69
45327;BME280;31062;49.678;24.560;2023-03-04T06:31:46;97598.41;;;2.74;58.12
45327;BME280;31062;49.678;24.560;2023-03-04T06:34:32;97640.38;;;3.05;58.02
45327;BME280;31062;49.678;24.560;2023-03-04T06:37:18;97414.47;;;1.96;57.01
45327;BME280;31062;49.678;24.560;2023-03-04T06:40:05;97606.31;;;3.57;56.97
45327;BME280;31062;49.678;24.560;2023-03-04T06:42:51;97617.88;;;3.79;54.87
45327;BME280;31062;49.678;24.560;2023-03-04T06:45:38;97594.50;;;3.85;54.39
45327;BME280;31062;49.678;24.560;2023-03-04T06:48:23;97598.13;;;3.88;54.03
45327;BME280;31062;49.678;24.560;2023-03-04T06:51:10;97573.28;;;3.86;53.81
45327;BME280;31062;49.678;24.560;2023-03-04T06:53:56;97586.28;;;4.23;53.46
45327;BME280;31062;49.678;24.560;2023-03-04T06:56:42;97578.81;;;4.39;52.98
45327;BME280;31062;49.678;24.560;2023-03-04T06:59:27;97562.34;;;4.46;51.97
45327;BME280;31062;49.678;24.560;2023-03-04T07:02:13;97421.56;;;3.60;50.91
45327;BME280;31062;49.678;24.560;2023-03-04T07:04:59;97566.66;;;4.80;50.13
45327;BME280;31062;49.678;24.560;2023-03-04T07:07:45;97585.72;;;4.78;49.59
45327;BME280;31062;49.678;24.560;2023-03-04T07:10:30;97545.09;;;4.76;50.17
45327;BME280;31062;49.678;24.560;2023-03-04T07:13:16;97402.19;;;3.89;49.85
45327;BME280;31062;49.678;24.560;2023-03-04T07:16:02;97575.78;;;5.05;50.05
45327;BME280;31062;49.678;24.560;2023-03-04T07:18:48;97554.06;;;5.24;50.32
45327;BME280;31062;49.678;24.560;2023-03-04T07:21:34;97441.53;;;4.54;49.82
45327;BME280;31062;49.678;24.560;2023-03-04T07:24:20;97588.78;;;5.52;49.93
45327;BME280;31062;49.678;24.560;2023-03-04T07:27:09;97431.81;;;4.61;49.92
45327;BME280;31062;49.678;24.560;2023-03-04T07:29:57;97577.31;;;5.71;50.07
45327;BME280;31062;49.678;24.560;2023-03-04T07:32:45;97567.16;;;5.81;49.72
45327;BME280;31062;49.678;24.560;2023-03-04T07:35:33;97537.34;;;5.70;49.95
45327;BME280;31062;49.678;24.560;2023-03-04T07:38:21;97574.97;;;6.00;49.49
45327;BME280;31062;49.678;24.560;2023-03-04T07:41:07;97528.84;;;5.83;50.67
45327;BME280;31062;49.678;24.560;2023-03-04T07:43:55;97552.34;;;6.09;49.63
45327;BME280;31062;49.678;24.560;2023-03-04T07:46:53;97602.84;;;6.29;49.88
45327;BME280;31062;49.678;24.560;2023-03-04T07:49:41;97561.78;;;6.23;49.49
45327;BME280;31062;49.678;24.560;2023-03-04T07:52:28;97383.97;;;5.11;49.20
45327;BME280;31062;49.678;24.560;2023-03-04T07:55:18;97404.97;;;5.24;48.91
45327;BME280;31062;49.678;24.560;2023-03-04T07:58:11;97608.53;;;6.31;49.22
45327;BME280;31062;49.678;24.560;2023-03-04T08:00:59;97564.75;;;5.93;49.22
45327;BME280;31062;49.678;24.560;2023-03-04T08:03:45;97577.66;;;5.75;50.48
45327;BME280;31062;49.678;24.560;2023-03-04T08:06:32;97580.44;;;5.35;51.03
45327;BME280;31062;49.678;24.560;2023-03-04T08:09:21;97372.22;;;3.76;51.63
45327;BME280;31062;49.678;24.560;2023-03-04T08:12:07;97593.31;;;5.17;52.19
45327;BME280;31062;49.678;24.560;2023-03-04T08:14:53;97597.00;;;5.05;53.00
45327;BME280;31062;49.678;24.560;2023-03-04T08:17:43;97586.03;;;4.97;53.32
45327;BME280;31062;49.678;24.560;2023-03-04T08:20:52;97569.22;;;4.78;54.18
45327;BME280;31062;49.678;24.560;2023-03-04T08:23:43;97448.97;;;3.91;54.01
45327;BME280;31062;49.678;24.560;2023-03-04T08:26:42;97562.13;;;4.75;53.92
45327;BME280;31062;49.678;24.560;2023-03-04T08:29:37;97585.69;;;4.93;54.90
45327;BME280;31062;49.678;24.560;2023-03-04T08:32:33;97580.72;;;4.99;54.41
45327;BME280;31062;49.678;24.560;2023-03-04T08:35:19;97573.63;;;4.81;54.66
45327;BME280;31062;49.678;24.560;2023-03-04T08:38:05;97556.97;;;4.79;55.11
45327;BME280;31062;49.678;24.560;2023-03-04T08:40:55;97582.03;;;4.90;54.67
45327;BME280;31062;49.678;24.560;2023-03-04T08:43:42;97588.97;;;4.99;55.04
45327;BME280;31062;49.678;24.560;2023-03-04T08:46:28;97586.09;;;4.82;55.47
45327;BME280;31062;49.678;24.560;2023-03-04T08:49:13;97580.19;;;4.93;55.53
45327;BME280;31062;49.678;24.560;2023-03-04T08:51:59;97462.84;;;4.08;56.24
45327;BME280;31062;49.678;24.560;2023-03-04T08:54:46;97433.44;;;4.01;55.87
45327;BME280;31062;49.678;24.560;2023-03-04T08:57:32;97571.75;;;4.99;55.95
45327;BME280;31062;49.678;24.560;2023-03-04T09:00:22;97571.75;;;5.06;56.16
45327;BME280;31062;49.678;24.560;2023-03-04T09:03:25;97529.69;;;4.81;55.75
45327;BME280;31062;49.678;24.560;2023-03-04T09:06:14;97561.81;;;5.18;55.95
45327;BME280;31062;49.678;24.560;2023-03-04T09:09:01;97296.06;;;3.36;55.55
45327;BME280;31062;49.678;24.560;2023-03-04T09:11:48;97550.81;;;5.18;55.15
45327;BME280;31062;49.678;24.560;2023-03-04T09:14:38;97535.84;;;5.04;55.33
45327;BME280;31062;49.678;24.560;2023-03-04T09:17:24;97576.84;;;5.17;55.57
45327;BME280;31062;49.678;24.560;2023-03-04T09:20:11;97537.63;;;5.17;55.10
45327;BME280;31062;49.678;24.560;2023-03-04T09:22:59;97367.84;;;3.73;54.66
45327;BME280;31062;49.678;24.560;2023-03-04T09:25:46;97553.81;;;4.90;55.36
45327;BME280;31062;49.678;24.560;2023-03-04T09:28:34;97345.22;;;3.49;55.99
45327;BME280;31062;49.678;24.560;2023-03-04T09:31:21;97537.34;;;4.90;56.12
45327;BME280;31062;49.678;24.560;2023-03-04T09:34:06;97556.34;;;5.03;56.48
45327;BME280;31062;49.678;24.560;2023-03-04T09:36:53;97513.69;;;5.02;56.09
45327;BME280;31062;49.678;24.560;2023-03-04T09:39:38;97578.25;;;5.26;54.94
45327;BME280;31062;49.678;24.560;2023-03-04T09:42:43;97545.66;;;5.22;55.97
45327;BME280;31062;49.678;24.560;2023-03-04T09:45:42;97547.47;;;5.27;55.34
45327;BME280;31062;49.678;24.560;2023-03-04T09:48:42;97533.97;;;5.14;54.14
45327;BME280;31062;49.678;24.560;2023-03-04T10:00:25;97519.69;;;5.08;53.54
45327;BME280;31062;49.678;24.560;2023-03-04T10:03:19;97539.81;;;5.18;54.43
45327;BME280;31062;49.678;24.560;2023-03-04T10:06:11;97559.97;;;5.13;54.64
45327;BME280;31062;49.678;24.560;2023-03-04T10:09:03;97540.50;;;5.26;55.74
45327;BME280;31062;49.678;24.560;2023-03-04T10:12:05;97499.59;;;5.06;54.86
45327;BME280;31062;49.678;24.560;2023-03-04T10:18:21;97527.28;;;5.32;55.56
45327;BME280;31062;49.678;24.560;2023-03-04T10:21:34;97524.34;;;5.38;55.50
45327;BME280;31062;49.678;24.560;2023-03-04T10:24:28;97419.97;;;4.50;55.47
45327;BME280;31062;49.678;24.560;2023-03-04T10:27:17;97524.06;;;5.19;55.88
45327;BME280;31062;49.678;24.560;2023-03-04T10:30:12;97553.94;;;5.07;56.54
45327;BME280;31062;49.678;24.560;2023-03-04T10:33:18;97500.75;;;4.80;55.95
45327;BME280;31062;49.678;24.560;2023-03-04T10:39:42;97377.88;;;3.78;57.22
45327;BME280;31062;49.678;24.560;2023-03-04T10:42:28;97480.00;;;4.39;57.86
45327;BME280;31062;49.678;24.560;2023-03-04T10:45:25;97511.28;;;4.51;57.17
45327;BME280;31062;49.678;24.560;2023-03-04T10:48:23;97495.69;;;4.53;56.43
45327;BME280;31062;49.678;24.560;2023-03-04T10:51:18;97504.13;;;4.56;57.67
45327;BME280;31062;49.678;24.560;2023-03-04T10:54:09;97501.97;;;4.46;57.75
45327;BME280;31062;49.678;24.560;2023-03-04T10:57:03;97498.09;;;4.49;58.64
45327;BME280;31062;49.678;24.560;2023-03-04T10:59:58;97503.41;;;4.47;57.54
45327;BME280;31062;49.678;24.560;2023-03-04T11:02:47;97461.53;;;4.39;57.08
45327;BME280;31062;49.678;24.560;2023-03-04T11:05:35;97340.09;;;3.53;57.04
45327;BME280;31062;49.678;24.560;2023-03-04T11:08:22;97489.47;;;4.61;57.73
45327;BME280;31062;49.678;24.560;2023-03-04T11:11:40;97490.41;;;4.56;57.66
45327;BME280;31062;49.678;24.560;2023-03-04T11:14:36;97464.44;;;4.41;57.62
45327;BME280;31062;49.678;24.560;2023-03-04T11:17:24;97330.94;;;3.58;58.22
45327;BME280;31062;49.678;24.560;2023-03-04T11:20:23;97470.78;;;4.67;57.36
45327;BME280;31062;49.678;24.560;2023-03-04T11:23:15;97451.09;;;4.45;57.72
45327;BME280;31062;49.678;24.560;2023-03-04T11:26:16;97460.25;;;4.40;56.24
45327;BME280;31062;49.678;24.560;2023-03-04T11:32:45;97462.75;;;4.61;57.38
45327;BME280;31062;49.678;24.560;2023-03-04T11:39:13;97479.97;;;4.62;58.02
45327;BME280;31062;49.678;24.560;2023-03-04T11:45:04;97464.06;;;4.53;58.32
45327;BME280;31062;49.678;24.560;2023-03-04T11:55:48;97488.38;;;4.64;56.61
45327;BME280;31062;49.678;24.560;2023-03-04T12:02:15;97452.50;;;4.54;57.31
45327;BME280;31062;49.678;24.560;2023-03-04T12:05:44;97453.47;;;4.41;56.97
45327;BME280;31062;49.678;24.560;2023-03-04T12:18:17;97454.72;;;4.56;58.35
45327;BME280;31062;49.678;24.560;2023-03-04T12:42:21;97438.75;;;3.99;58.54
45327;BME280;31062;49.678;24.560;2023-03-04T12:51:35;97428.31;;;4.05;58.06
45327;BME280;31062;49.678;24.560;2023-03-04T12:54:44;97238.41;;;2.73;58.50
45327;BME280;31062;49.678;24.560;2023-03-04T12:57:32;97381.34;;;3.70;58.54
45327;BME280;31062;49.678;24.560;2023-03-04T13:03:40;97388.13;;;3.85;59.39
45327;BME280;31062;49.678;24.560;2023-03-04T13:06:51;97448.22;;;4.21;57.64
45327;BME280;31062;49.678;24.560;2023-03-04T13:10:13;97425.91;;;4.17;57.21
45327;BME280;31062;49.678;24.560;2023-03-04T13:13:00;97412.41;;;4.03;57.62
45327;BME280;31062;49.678;24.560;2023-03-04T13:16:01;97431.78;;;3.98;58.06
45327;BME280;31062;49.678;24.560;2023-03-04T13:18:47;97418.63;;;3.96;57.68
45327;BME280;31062;49.678;24.560;2023-03-04T13:21:45;97409.66;;;3.96;57.47
45327;BME280;31062;49.678;24.560;2023-03-04T13:24:46;97405.50;;;3.80;57.72
45327;BME280;31062;49.678;24.560;2023-03-04T13:28:01;97405.50;;;3.87;58.12
45327;BME280;31062;49.678;24.560;2023-03-04T13:33:47;97374.78;;;3.66;58.26
45327;BME280;31062;49.678;24.560;2023-03-04T13:36:34;97397.06;;;3.85;59.18
45327;BME280;31062;49.678;24.560;2023-03-04T13:39:35;97370.03;;;3.66;58.50
45327;BME280;31062;49.678;24.560;2023-03-04T13:42:40;97375.69;;;3.76;57.93
45327;BME280;31062;49.678;24.560;2023-03-04T13:45:33;97231.66;;;2.82;57.83
45327;BME280;31062;49.678;24.560;2023-03-04T13:48:25;97396.69;;;4.04;58.84
45327;BME280;31062;49.678;24.560;2023-03-04T13:54:25;97406.53;;;4.22;57.83
45327;BME280;31062;49.678;24.560;2023-03-04T13:57:20;97399.59;;;4.06;57.52
45327;BME280;31062;49.678;24.560;2023-03-04T14:00:09;97394.78;;;4.29;57.87
45327;BME280;31062;49.678;24.560;2023-03-04T14:03:11;97398.25;;;4.30;57.14
45327;BME280;31062;49.678;24.560;2023-03-04T14:06:15;97387.13;;;4.28;57.96
45327;BME280;31062;49.678;24.560;2023-03-04T14:09:12;97405.75;;;4.29;57.92
45327;BME280;31062;49.678;24.560;2023-03-04T14:12:01;97244.44;;;3.10;57.09
45327;BME280;31062;49.678;24.560;2023-03-04T14:18:02;97439.44;;;4.22;57.49
45327;BME280;31062;49.678;24.560;2023-03-04T14:20:49;97413.09;;;4.19;57.32
45327;BME280;31062;49.678;24.560;2023-03-04T14:23:36;97347.53;;;3.76;57.43
45327;BME280;31062;49.678;24.560;2023-03-04T14:26:23;97221.78;;;2.86;57.11
45327;BME280;31062;49.678;24.560;2023-03-04T14:29:25;97408.00;;;4.08;57.19
45327;BME280;31062;49.678;24.560;2023-03-04T14:32:11;97231.09;;;2.76;57.15
45327;BME280;31062;49.678;24.560;2023-03-04T14:35:04;97375.50;;;3.82;57.27
45327;BME280;31062;49.678;24.560;2023-03-04T14:38:18;97414.25;;;3.86;57.32
45327;BME280;31062;49.678;24.560;2023-03-04T14:41:08;97401.66;;;3.67;57.57
45327;BME280;31062;49.678;24.560;2023-03-04T14:44:01;97393.44;;;3.60;57.81
45327;BME280;31062;49.678;24.560;2023-03-04T14:46:55;97392.69;;;3.52;58.75
45327;BME280;31062;49.678;24.560;2023-03-04T14:49:52;97356.53;;;3.23;58.84
45327;BME280;31062;49.678;24.560;2023-03-04T14:52:40;97439.09;;;3.50;58.61
45327;BME280;31062;49.678;24.560;2023-03-04T14:55:29;97417.00;;;3.48;57.75
45327;BME280;31062;49.678;24.560;2023-03-04T14:58:32;97415.53;;;3.39;58.16
45327;BME280;31062;49.678;24.560;2023-03-04T15:01:28;97421.38;;;3.43;59.40
45327;BME280;31062;49.678;24.560;2023-03-04T15:04:18;97392.69;;;3.29;59.45
45327;BME280;31062;49.678;24.560;2023-03-04T15:07:04;97234.84;;;2.12;59.33
45327;BME280;31062;49.678;24.560;2023-03-04T15:09:53;97433.25;;;3.38;59.10
45327;BME280;31062;49.678;24.560;2023-03-04T15:12:39;97428.50;;;3.31;59.12
45327;BME280;31062;49.678;24.560;2023-03-04T15:15:33;97425.94;;;3.33;58.91
45327;BME280;31062;49.678;24.560;2023-03-04T15:18:27;97424.81;;;3.28;58.59
45327;BME280;31062;49.678;24.560;2023-03-04T15:24:06;97400.34;;;3.08;59.48
45327;BME280;31062;49.678;24.560;2023-03-04T15:26:54;97407.63;;;2.98;59.65
45327;BME280;31062;49.678;24.560;2023-03-04T15:29:42;97276.94;;;2.17;59.32
45327;BME280;31062;49.678;24.560;2023-03-04T15:32:30;97420.06;;;3.14;59.64
45327;BME280;31062;49.678;24.560;2023-03-04T15:35:19;97308.38;;;2.31;59.72
45327;BME280;31062;49.678;24.560;2023-03-04T15:38:07;97422.59;;;3.12;59.90
45327;BME280;31062;49.678;24.560;2023-03-04T15:40:53;97429.91;;;3.02;60.47
45327;BME280;31062;49.678;24.560;2023-03-04T15:43:39;97325.69;;;2.33;60.37
45327;BME280;31062;49.678;24.560;2023-03-04T15:46:25;97437.56;;;3.03;60.72
45327;BME280;31062;49.678;24.560;2023-03-04T15:49:10;97425.50;;;2.99;60.65
45327;BME280;31062;49.678;24.560;2023-03-04T15:51:56;97424.75;;;2.91;60.98
45327;BME280;31062;49.678;24.560;2023-03-04T15:54:42;97249.94;;;1.62;60.86
45327;BME280;31062;49.678;24.560;2023-03-04T15:57:28;97411.91;;;2.70;60.76
45327;BME280;31062;49.678;24.560;2023-03-04T16:00:15;97430.16;;;2.75;61.41
45327;BME280;31062;49.678;24.560;2023-03-04T16:03:00;97290.44;;;1.71;61.56
45327;BME280;31062;49.678;24.560;2023-03-04T16:05:48;97380.41;;;2.41;62.46
45327;BME280;31062;49.678;24.560;2023-03-04T16:08:34;97400.50;;;2.51;61.87
45327;BME280;31062;49.678;24.560;2023-03-04T16:11:23;97443.34;;;2.84;62.15
45327;BME280;31062;49.678;24.560;2023-03-04T16:14:10;97416.09;;;2.71;61.66
45327;BME280;31062;49.678;24.560;2023-03-04T16:17:01;97436.38;;;2.76;61.81
45327;BME280;31062;49.678;24.560;2023-03-04T16:19:46;97442.78;;;2.78;61.89
45327;BME280;31062;49.678;24.560;2023-03-04T16:22:33;97256.78;;;1.48;62.13
45327;BME280;31062;49.678;24.560;2023-03-04T16:25:18;97305.81;;;1.89;62.09